Tohshi — 3EJO5 — position and weather

sailwx.info

Track history (hours):
 
Tides and Currents Weather Stations Pressure Air Temp Water Temp Dewpoint Dewpoint Depression Visibility Wind Speed Wind Dir Waves Ship Positions

Tohshi

Last reported at 2017-Oct-15 15:45 UTC. Time now 2017-Oct-17 19:13 UTC.
Position N 01°13' E 103°56'.

Length 333 m; beam 60 m.

Type: Tanker. MMSI: 372582000.

Date/timePositionNaut miles runAvg speedWind from/ knotsBaromVisibWave heightAir tempDewpointWater temp
2017-Oct-15 15:45N 01°13' E 103°56'1 2.2
2017-Oct-15 15:30N 01°13' E 103°55'1 2.6
2017-Oct-15 15:00N 01°13' E 103°54'3 2.9
2017-Oct-15 13:59N 01°12' E 103°51'1 3.0
2017-Oct-15 13:28N 01°11' E 103°50'2 3.3
2017-Oct-15 12:53N 01°10' E 103°48'1 3.2
2017-Oct-15 12:28N 01°10' E 103°47'20 2.7
2017-Oct-15 05:05N 01°15' E 104°06'111.6
2017-Oct-15 04:58N 01°15' E 104°04'510.2
2017-Oct-15 04:30N 01°14' E 103°60'3 5.3
2017-Oct-15 04:00N 01°14' E 103°57'3 6.8
2017-Oct-15 03:30N 01°13' E 103°54'4 9.0
2017-Oct-15 03:01N 01°11' E 103°50'5 9.1
2017-Oct-15 02:30N 01°09' E 103°46'5 9.4
2017-Oct-15 02:01N 01°05' E 103°43'510.1
2017-Oct-15 01:30N 01°04' E 103°38'611.8
2017-Oct-15 00:59N 01°07' E 103°33'612.1
2017-Oct-15 00:28N 01°10' E 103°27'  
Track history (hours):
 
Tides and Currents Weather Stations Pressure Air Temp Water Temp Dewpoint Dewpoint Depression Visibility Wind Speed Wind Dir Waves Ship Positions

Tohshi

Last reported at 2017-Oct-15 15:45 UTC. Time now 2017-Oct-17 19:13 UTC.
Position N 01°13' E 103°56'.

Length 333 m; beam 60 m.

Type: Tanker. MMSI: 372582000.

Date/timePositionNaut miles runAvg speedWind from/ knotsBaromVisibWave heightAir tempDewpointWater temp
2017-Oct-15 15:45N 01°13' E 103°56'1 2.2
2017-Oct-15 15:30N 01°13' E 103°55'1 2.6
2017-Oct-15 15:00N 01°13' E 103°54'3 2.9
2017-Oct-15 13:59N 01°12' E 103°51'1 3.0
2017-Oct-15 13:28N 01°11' E 103°50'2 3.3
2017-Oct-15 12:53N 01°10' E 103°48'1 3.2
2017-Oct-15 12:28N 01°10' E 103°47'20 2.7
2017-Oct-15 05:05N 01°15' E 104°06'111.6
2017-Oct-15 04:58N 01°15' E 104°04'510.2
2017-Oct-15 04:30N 01°14' E 103°60'3 5.3
2017-Oct-15 04:00N 01°14' E 103°57'3 6.8
2017-Oct-15 03:30N 01°13' E 103°54'4 9.0
2017-Oct-15 03:01N 01°11' E 103°50'5 9.1
2017-Oct-15 02:30N 01°09' E 103°46'5 9.4
2017-Oct-15 02:01N 01°05' E 103°43'510.1
2017-Oct-15 01:30N 01°04' E 103°38'611.8
2017-Oct-15 00:59N 01°07' E 103°33'612.1
2017-Oct-15 00:28N 01°10' E 103°27'  

Dump ship's entire track history